Latest Weather Observations for East Sale

IDV60801

Issued at 1:33 am EST Tuesday 26 July 2016 (issued every 30 minutes, with the page automatically refreshed every 10 minutes)

About weather observations | Map of weather stations | Latest weather observations for VIC | Other Formats
Station Details ID: 085072 Name: EAST SALE AIRPORT Lat: -38.12 Lon: 147.13 Height: 4.6 m
Data from the previous 72 hours. | See also: Recent months at East Sale
Date/Time
EST
Temp
°C
App
Temp
°C
Dew
Point
°C
Rel
Hum
%
Delta-T
°C
Wind Press
QNH
hPa
Press
MSL
hPa
Rain since
9am
mm
Dir  Spd
km/h
Gust
km/h
Spd
kts
Gust
kts
26/01:30am 7.9 -1.3 1.1 62 2.8 W 39 52 21 28 1006.6 1006.6 2.4
26/01:18am 8.1 -1.1 1.3 62 2.8 W 39 57 21 31 1006.4 1006.4 2.4
26/01:00am 7.7 -2.4 1.5 65 2.5 WNW 44 54 24 29 1006.1 1006.1 2.4
26/12:30am 8.0 -1.9 1.4 63 2.7 WNW 43 61 23 33 1005.7 1005.7 2.4
26/12:29am 8.0 -1.9 1.4 63 2.7 WNW 43 61 23 33 1005.8 1005.8 2.4
26/12:00am 8.1 -0.7 1.3 62 2.8 WNW 37 50 20 27 1005.5 1005.5 2.4
 
Date/Time
EST
Temp
°C
App
Temp
°C
Dew
Point
°C
Rel
Hum
%
Delta-T
°C
Wind Press
QNH
hPa
Press
MSL
hPa
Rain since
9am
mm
Dir  Spd
km/h
Gust
km/h
Spd
kts
Gust
kts
25/11:30pm 7.7 -1.5 1.5 65 2.5 WNW 39 48 21 26 1005.1 1005.1 2.4
25/11:23pm 7.9 -2.0 1.5 64 2.6 WNW 43 57 23 31 1005.0 1005.0 2.4
25/11:00pm 8.7 -3.9 1.4 60 3.0 WNW 57 78 31 42 1004.7 1004.7 2.4
25/10:48pm 8.9 -1.8 2.3 63 2.8 W 48 74 26 40 1004.7 1004.7 2.4
25/10:30pm 7.9 -2.2 3.6 74 1.8 W 46 61 25 33 1004.7 1004.7 2.4
25/10:00pm 7.9 -2.7 5.0 82 1.3 W 50 72 27 39 1004.8 1004.8 2.0
25/09:53pm 8.6 1.8 5.2 79 1.5 W 30 65 16 35 1004.9 1004.9 2.0
25/09:33pm 8.6 2.7 7.4 92 0.6 W 28 46 15 25 1004.2 1004.2 1.6
25/09:30pm 8.5 2.2 7.3 92 0.6 W 30 46 16 25 1004.2 1004.2 1.6
25/09:25pm 8.5 2.5 7.1 91 0.7 W 28 46 15 25 1004.5 1004.5 1.2
25/09:00pm 9.0 2.8 6.1 82 1.3 WSW 28 39 15 21 1004.3 1004.3 0.0
25/08:53pm 9.4 2.3 5.6 77 1.7 W 32 46 17 25 1004.1 1004.1 0.0
25/08:48pm 9.8 1.3 5.2 73 2.1 W 39 57 21 31 1003.7 1003.7 0.0
25/08:30pm 11.5 3.2 4.3 61 3.2 WNW 37 54 20 29 1003.3 1003.3 0.0
25/08:02pm 12.2 5.1 3.7 56 3.8 NNW 30 52 16 28 1001.9 1001.9 0.0
25/08:00pm 12.4 5.3 3.6 55 3.9 NNW 30 39 16 21 1002.0 1002.0 0.0
25/07:48pm 12.4 4.6 3.1 53 4.1 NNW 33 52 18 28 1001.9 1001.9 0.0
25/07:30pm 11.7 4.6 3.5 57 3.6 NW 30 41 16 22 1002.0 1002.0 0.0
25/07:09pm 11.9 5.1 2.9 54 3.9 NW 28 44 15 24 1002.6 1002.6 0.0
25/07:00pm 11.8 6.5 2.8 54 3.9 NW 20 26 11 14 1002.5 1002.5 0.0
25/06:30pm 11.9 4.1 2.9 54 3.9 NW 33 44 18 24 1002.6 1002.6 0.0
25/06:13pm 11.8 4.2 2.8 54 3.9 NW 32 50 17 27 1003.3 1003.3 0.0
25/06:00pm 12.0 5.0 2.2 51 4.2 NW 28 39 15 21 1003.4 1003.4 0.0
25/05:30pm 11.1 3.4 2.2 54 3.8 NW 32 43 17 23 1002.9 1002.9 0.0
25/05:01pm 11.8 0.8 2.8 54 3.9 NW 50 69 27 37 1003.0 1003.0 0.0
25/05:00pm 11.7 0.3 2.7 54 3.9 NW 52 69 28 37 1002.9 1002.9 0.0
25/04:47pm 12.1 1.6 3.9 57 3.7 NW 48 70 26 38 1002.8 1002.8 0.0
25/04:30pm 12.7 2.6 3.9 55 4.0 NW 46 59 25 32 1002.8 1002.8 0.0
25/04:00pm 12.4 5.3 3.6 55 3.9 NW 30 44 16 24 1004.0 1004.0 0.0
25/03:30pm 13.4 5.4 3.8 52 4.3 NW 35 48 19 26 1004.1 1004.1 0.0
25/03:00pm 13.5 6.2 4.4 54 4.2 NW 32 43 17 23 1004.2 1004.2 0.0
25/02:30pm 13.7 6.2 4.3 53 4.3 NW 33 44 18 24 1004.6 1004.6 0.0
25/02:00pm 14.3 6.6 5.4 55 4.2 NW 35 44 19 24 1004.9 1004.9 0.0
25/01:30pm 13.4 5.6 4.8 56 4.0 NW 35 46 19 25 1005.3 1005.3 0.0
25/01:00pm 13.6 6.3 5.3 57 3.9 NW 33 44 18 24 1005.6 1005.6 0.0
25/12:30pm 13.3 7.7 5.5 59 3.7 WNW 24 37 13 20 1006.2 1006.2 0.0
25/12:00pm 13.3 7.1 6.2 62 3.4 WNW 28 35 15 19 1006.6 1006.6 0.0
25/11:30am 13.9 7.4 6.7 62 3.5 WNW 30 37 16 20 1006.7 1006.7 0.0
25/11:00am 12.7 6.4 5.6 62 3.3 NW 28 35 15 19 1007.0 1007.0 0.0
25/10:30am 12.2 5.5 5.8 65 3.0 NW 30 41 16 22 1007.0 1007.0 0.0
25/10:00am 11.0 6.1 5.3 68 2.6 NW 20 26 11 14 1007.2 1007.2 0.0
25/09:30am 9.4 6.6 5.2 75 1.9 NNW 9 11 5 6 1007.4 1007.4 0.0
25/09:00am 7.7 4.9 5.2 84 1.1 NNW 9 11 5 6 1007.3 1007.3 0.0
25/08:30am 6.5 3.1 4.2 85 1.0 NNW 11 13 6 7 1007.1 1007.1 0.0
25/08:00am 5.4 1.5 3.6 88 0.8 NW 13 17 7 9 1007.1 1007.1 0.0
25/07:30am 4.7 1.8 2.6 86 0.8 W 7 9 4 5 1006.9 1006.9 0.0
25/07:00am 4.1 1.4 2.8 91 0.5 NW 6 7 3 4 1006.6 1006.6 0.0
25/06:30am 3.2 -0.5 2.5 95 0.3 N 11 13 6 7 1006.1 1006.1 0.0
25/06:00am 1.2 -2.1 0.3 94 0.3 WNW 7 9 4 5 1006.1 1006.1 0.0
25/05:30am 1.6 -1.0 0.7 94 0.3 ENE 4 6 2 3 1005.8 1005.8 0.0
25/05:00am 1.6 -1.4 0.6 93 0.4 NNE 6 7 3 4 1005.6 1005.6 0.0
25/04:30am 1.9 -1.3 0.7 92 0.4 N 7 9 4 5 1005.4 1005.4 0.0
25/04:00am 2.3 0.5 1.3 93 0.4 CALM 0 0 0 0 1005.2 1005.2 0.0
25/03:30am 2.7 0.9 1.5 92 0.5 CALM 0 0 0 0 1005.1 1005.1 0.0
25/03:00am 3.7 1.3 2.2 90 0.6 NW 4 6 2 3 1005.0 1005.0 0.0
25/02:30am 4.8 2.9 3.0 88 0.7 S 2 6 1 3 1005.1 1005.1 0.0
25/02:00am 4.9 1.6 2.3 83 1.1 NW 9 11 5 6 1005.2 1005.2 0.0
25/01:30am 5.9 2.3 2.9 81 1.2 NNW 11 13 6 7 1005.1 1005.1 0.0
25/01:00am 5.7 2.5 3.0 83 1.1 NW 9 15 5 8 1005.0 1005.0 0.0
25/12:30am 5.5 1.4 2.2 79 1.3 N 13 15 7 8 1004.9 1004.9 0.0
25/12:00am 5.5 1.4 2.5 81 1.2 N 13 17 7 9 1004.9 1004.9 0.0
 
Date/Time
EST
Temp
°C
App
Temp
°C
Dew
Point
°C
Rel
Hum
%
Delta-T
°C
Wind Press
QNH
hPa
Press
MSL
hPa
Rain since
9am
mm
Dir  Spd
km/h
Gust
km/h
Spd
kts
Gust
kts
24/11:30pm 5.7 2.5 2.9 82 1.2 N 9 11 5 6 1005.2 1005.2 0.0
24/11:00pm 6.2 3.9 3.0 80 1.3 NNE 4 7 2 4 1005.3 1005.3 0.0
24/10:30pm 6.2 3.3 2.8 79 1.4 N 7 11 4 6 1005.5 1005.5 0.0
24/10:00pm 5.3 2.4 2.5 82 1.1 NNE 7 9 4 5 1005.7 1005.7 0.0
24/09:30pm 5.5 1.9 2.7 82 1.1 NNE 11 15 6 8 1006.1 1006.1 0.0
24/09:00pm 5.5 2.8 2.5 81 1.2 NNE 6 7 3 4 1006.2 1006.2 0.0
24/08:30pm 6.4 3.2 3.2 80 1.3 NNE 9 11 5 6 1006.4 1006.4 0.0
24/08:00pm 7.2 3.6 2.7 73 1.9 NNE 11 13 6 7 1006.6 1006.6 0.0
24/07:30pm 7.4 4.6 3.3 75 1.7 N 7 17 4 9 1006.8 1006.8 0.0
24/07:00pm 7.6 5.0 3.3 74 1.8 N 6 7 3 4 1006.8 1006.8 0.0
24/06:30pm 8.3 4.7 3.0 69 2.2 N 11 11 6 6 1007.0 1007.0 0.0
24/06:00pm 8.7 4.7 2.9 67 2.5 NNW 13 15 7 8 1007.1 1007.1 0.0
24/05:30pm 9.4 4.2 2.7 63 2.8 NW 19 22 10 12 1007.0 1007.0 0.0
24/05:00pm 10.1 2.4 2.5 59 3.2 WNW 32 39 17 21 1007.3 1007.3 0.0
24/04:30pm 10.5 2.7 2.8 59 3.3 NW 33 44 18 24 1007.0 1007.0 0.0
24/04:09pm 11.0 3.4 2.6 56 3.6 WNW 32 50 17 27 1006.9 1006.9 0.0
24/04:00pm 11.4 3.8 2.9 56 3.7 WNW 32 41 17 22 1006.9 1006.9 0.0
24/03:30pm 11.9 5.4 2.9 54 3.9 WNW 26 33 14 18 1006.9 1006.9 0.0
24/03:00pm 12.1 5.2 2.8 53 4.1 NW 28 33 15 18 1007.0 1007.0 0.0
24/02:30pm 12.6 5.5 3.6 54 4.0 NW 30 39 16 21 1007.3 1007.3 0.0
24/02:00pm 11.3 4.5 2.9 56 3.7 NW 28 35 15 19 1007.8 1007.8 0.0
24/01:30pm 10.7 4.3 3.3 60 3.2 NW 26 35 14 19 1008.1 1008.1 0.0
24/01:00pm 11.5 2.9 2.5 54 3.9 NW 37 46 20 25 1008.3 1008.3 0.0
24/12:30pm 11.6 3.4 2.6 54 3.9 NNW 35 44 19 24 1008.9 1008.9 0.0
24/12:00pm 11.5 3.8 2.3 53 4.0 NNW 32 43 17 23 1009.4 1009.4 0.0
24/11:30am 11.3 4.5 2.9 56 3.7 NW 28 39 15 21 1010.1 1010.1 0.0
24/11:00am 10.9 4.0 2.5 56 3.6 NW 28 35 15 19 1010.6 1010.6 0.0
24/10:30am 10.5 5.6 5.3 70 2.4 NNW 20 26 11 14 1010.9 1010.9 0.0
24/10:00am 8.6 5.4 3.2 69 2.3 W 9 13 5 7 1011.1 1011.1 0.0
24/09:30am 6.5 3.2 4.5 87 0.9 WNW 11 13 6 7 1011.3 1011.3 0.0
24/09:00am 4.3 1.7 3.1 92 0.5 NE 6 7 3 4 1011.4 1011.4 5.2
24/08:30am 4.0 0.9 3.4 96 0.2 NW 9 11 5 6 1011.5 1011.5 5.2
24/08:00am 2.0 -0.9 1.6 97 0.2 N 6 9 3 5 1011.5 1011.5 5.2
24/07:41am 1.2 -2.8 0.8 97 0.1 N 11 11 6 6 1011.4 1011.4 5.2
24/07:30am 0.3 -3.4 -0.3 96 0.2 N 9 11 5 6 1011.2 1011.2 5.2
24/07:00am 1.2 -0.7 0.8 97 0.1 CALM 0 0 0 0 1011.3 1011.3 5.2
24/06:56am 1.4 -0.4 1.0 97 0.1 CALM 0 0 0 0 1011.3 1011.3 5.2
24/06:30am 1.2 -1.8 0.6 96 0.2 NNE 6 7 3 4 1011.2 1011.2 5.2
24/06:00am 2.4 -1.4 1.8 96 0.2 N 11 11 6 6 1011.4 1011.4 5.2
24/05:30am 2.7 -0.3 2.0 95 0.3 N 7 9 4 5 1011.6 1011.6 5.2
24/05:00am 3.1 0.2 2.4 95 0.3 WNW 7 9 4 5 1011.5 1011.5 5.2
24/04:30am 3.0 -0.7 2.3 95 0.3 WNW 11 13 6 7 1011.6 1011.6 5.2
24/04:00am 2.7 -0.3 1.7 93 0.4 W 7 13 4 7 1011.5 1011.5 5.2
24/03:30am 4.4 0.5 3.5 94 0.4 W 13 15 7 8 1011.4 1011.4 5.2
24/03:00am 4.1 0.5 3.1 93 0.4 W 11 13 6 7 1011.7 1011.7 5.2
24/02:30am 3.9 1.2 2.4 90 0.6 WNW 6 7 3 4 1011.8 1011.8 5.2
24/02:00am 5.3 2.2 3.5 88 0.8 W 9 13 5 7 1011.8 1011.8 5.2
24/01:30am 6.2 1.7 4.0 86 0.9 W 17 20 9 11 1011.8 1011.8 5.2
24/01:00am 6.0 3.5 4.5 90 0.6 WNW 7 9 4 5 1012.1 1012.1 5.2
24/12:30am 5.9 2.2 4.5 91 0.6 SW 13 17 7 9 1012.0 1012.0 5.2
24/12:00am 6.2 2.1 4.5 89 0.7 WSW 15 20 8 11 1012.0 1012.0 5.2
 
Date/Time
EST
Temp
°C
App
Temp
°C
Dew
Point
°C
Rel
Hum
%
Delta-T
°C
Wind Press
QNH
hPa
Press
MSL
hPa
Rain since
9am
mm
Dir  Spd
km/h
Gust
km/h
Spd
kts
Gust
kts
23/11:30pm 6.3 2.2 4.5 88 0.8 WSW 15 20 8 11 1012.1 1012.1 5.2
23/11:00pm 6.4 2.3 4.2 86 0.9 WSW 15 20 8 11 1012.2 1012.2 5.2
23/10:30pm 6.5 2.0 4.3 86 0.9 W 17 20 9 11 1012.1 1012.1 5.2
23/10:00pm 6.4 1.0 4.4 87 0.9 W 22 28 12 15 1011.7 1011.7 5.2
23/09:30pm 6.2 1.4 4.7 90 0.6 WSW 19 28 10 15 1011.6 1011.6 5.0
23/09:00pm 6.2 -0.3 4.7 90 0.6 WSW 28 37 15 20 1011.2 1011.2 4.8
23/08:30pm 6.5 1.1 4.3 86 0.9 WSW 22 32 12 17 1010.8 1010.8 4.4
23/08:00pm 6.7 -0.8 4.2 84 1.1 W 33 46 18 25 1010.1 1010.1 4.4
23/07:30pm 6.4 0.7 4.9 90 0.7 W 24 35 13 19 1009.6 1009.6 4.4
23/07:00pm 6.4 -0.1 4.7 89 0.7 W 28 39 15 21 1009.2 1009.2 4.0
23/06:49pm 6.5 -1.0 4.5 87 0.9 W 33 56 18 30 1008.8 1008.8 4.0
23/06:30pm 6.5 -0.9 4.8 89 0.7 W 33 48 18 26 1008.7 1008.7 3.8
23/06:27pm 6.5 -0.7 4.8 89 0.7 W 32 43 17 23 1008.6 1008.6 3.8
23/06:05pm 6.4 -1.1 3.7 83 1.1 WSW 32 48 17 26 1008.1 1008.1 3.6
23/06:02pm 6.3 -0.3 4.3 87 0.9 SW 28 46 15 25 1008.5 1008.5 3.4
23/06:00pm 6.2 0.0 4.4 88 0.8 WSW 26 35 14 19 1008.4 1008.4 3.0
23/05:35pm 6.2 -1.1 4.7 90 0.6 WSW 32 43 17 23 1007.6 1007.6 2.0
23/05:30pm 6.3 -0.9 4.8 90 0.7 WSW 32 43 17 23 1007.6 1007.6 2.0
23/05:15pm 6.5 -2.0 5.0 90 0.7 WSW 39 63 21 34 1007.4 1007.4 1.6
23/05:12pm 6.5 -1.0 4.7 88 0.8 W 33 61 18 33 1007.1 1007.1 1.4
23/05:00pm 7.0 0.9 4.7 85 1.0 W 26 39 14 21 1006.4 1006.4 0.8
23/04:30pm 6.6 0.0 4.1 84 1.1 W 28 41 15 22 1006.3 1006.3 0.8
23/04:09pm 5.8 -4.2 4.1 89 0.7 W 46 76 25 41 1006.3 1006.3 0.8
23/04:03pm 6.0 -2.4 3.5 84 1.0 W 37 76 20 41 1006.0 1006.0 0.8
23/04:00pm 8.1 1.1 3.9 75 1.8 W 30 52 16 28 1005.7 1005.7 0.4
23/03:30pm 8.5 0.5 3.6 71 2.1 WNW 35 48 19 26 1005.2 1005.2 0.2
23/03:00pm 7.8 -1.4 3.7 75 1.8 WNW 41 52 22 28 1004.8 1004.8 0.2
23/02:31pm 7.3 -1.9 3.5 77 1.6 WNW 41 70 22 38 1005.0 1005.0 0.2
23/02:30pm 7.4 -1.4 3.6 77 1.6 WNW 39 56 21 30 1005.0 1005.0 0.2
23/02:00pm 6.6 -3.6 3.2 79 1.4 W 46 65 25 35 1004.7 1004.7 0.2
23/01:49pm 7.1 -0.5 4.1 81 1.3 W 33 56 18 30 1004.7 1004.7 0.2
23/01:30pm 7.7 -1.4 4.1 78 1.6 W 41 56 22 30 1004.1 1004.1 0.2
23/01:16pm 7.7 -1.5 3.6 75 1.8 WNW 41 61 22 33 1004.0 1004.0 0.2
23/01:00pm 7.5 -0.4 4.5 81 1.3 WNW 35 44 19 24 1003.9 1003.9 0.2
23/12:32pm 5.9 -5.1 3.2 83 1.1 W 50 72 27 39 1004.2 1004.2 0.2
23/12:30pm 6.1 -4.5 3.1 81 1.2 W 48 65 26 35 1004.1 1004.1 0.2
23/12:03pm 7.1 -2.5 3.5 78 1.5 W 43 61 23 33 1003.4 1003.4 0.0
23/12:00pm 7.1 -2.2 2.8 74 1.8 W 41 54 22 29 1003.4 1003.4 0.0
23/11:55am 7.1 -3.1 3.0 75 1.7 W 46 65 25 35 1003.3 1003.3 0.0
23/11:30am 7.9 -3.0 3.6 74 1.8 W 50 65 27 35 1003.3 1003.3 0.0
23/11:20am 7.6 -3.3 3.5 75 1.7 W 50 70 27 38 1003.3 1003.3 0.0
23/11:17am 7.5 -3.5 3.0 73 1.9 W 50 70 27 38 1003.2 1003.2 0.0
23/11:00am 7.4 -1.0 3.6 77 1.6 W 37 54 20 29 1003.1 1003.1 0.0
23/10:30am 6.3 -5.5 2.8 78 1.4 W 54 85 29 46 1003.0 1003.0 0.0
23/10:28am 6.5 -4.6 2.6 76 1.6 W 50 85 27 46 1003.0 1003.0 0.0
23/10:03am 8.1 -1.0 3.8 74 1.9 W 41 59 22 32 1001.9 1001.9 0.0
23/10:00am 8.2 -1.0 3.5 72 2.0 W 41 52 22 28 1001.8 1001.8 0.0
23/09:30am 7.3 -3.8 2.4 71 2.0 W 50 72 27 39 1000.5 1000.5 0.0
23/09:02am 7.8 -2.6 4.4 79 1.5 W 48 69 26 37 1000.0 1000.0 0.0
23/09:00am 7.8 -2.1 4.6 80 1.4 W 46 63 25 34 999.9 999.9 27.4
23/08:53am 7.4 -1.2 4.7 83 1.2 W 39 61 21 33 999.9 999.9 27.4
23/08:30am 6.7 -2.3 4.4 85 1.0 W 41 57 22 31 999.4 999.4 27.4
23/08:12am 7.3 -1.6 5.3 87 0.9 W 41 72 22 39 999.1 999.1 27.0
23/08:05am 7.3 0.0 5.3 87 0.9 W 33 54 18 29 998.8 998.8 26.8
23/08:00am 7.2 -0.1 5.3 88 0.8 W 33 46 18 25 998.7 998.7 26.8
23/07:41am 6.4 -1.4 4.9 90 0.7 W 35 46 19 25 998.0 998.0 26.8
23/07:30am 6.2 -2.4 4.7 90 0.6 WSW 39 54 21 29 998.2 998.2 26.8
23/07:24am 6.1 -1.8 4.4 89 0.7 WSW 35 50 19 27 998.1 998.1 26.4
23/07:12am 8.1 -1.2 5.0 81 1.4 W 43 61 23 33 997.2 997.2 25.4
23/07:00am 8.2 -1.4 4.6 78 1.6 W 44 57 24 31 996.5 996.5 25.0
23/06:30am 7.7 -0.2 4.5 80 1.4 W 35 54 19 29 995.9 995.9 25.0
23/06:27am 7.7 -0.1 4.7 81 1.3 W 35 54 19 29 995.9 995.9 25.0
23/06:00am 7.9 0.7 4.8 81 1.4 W 32 46 17 25 995.7 995.7 25.0
23/05:30am 7.3 0.0 4.6 83 1.2 W 32 44 17 24 995.1 995.1 25.0
23/05:06am 8.0 -3.8 4.9 81 1.4 W 56 87 30 47 994.4 994.4 25.0
23/05:00am 8.2 -4.9 5.1 81 1.4 W 63 91 34 49 993.9 993.9 25.0
23/04:44am 9.3 -2.0 5.5 77 1.7 WNW 54 78 29 42 992.7 992.7 25.0
23/04:30am 9.9 2.5 5.1 72 2.2 WNW 33 54 18 29 992.0 992.0 25.0
23/04:27am 9.7 2.9 5.1 73 2.1 WNW 30 54 16 29 991.8 991.8 25.0
23/04:00am 8.6 2.3 5.9 83 1.2 NW 28 35 15 19 990.6 990.6 25.0
23/03:30am 9.2 4.1 5.9 80 1.5 NW 22 32 12 17 991.3 991.3 25.0
23/03:00am 9.4 3.9 6.1 80 1.5 WNW 24 32 13 17 991.3 991.3 25.0
23/02:30am 9.1 1.1 5.8 80 1.5 W 37 63 20 34 991.1 991.1 25.0
23/02:26am 9.1 2.0 5.7 79 1.5 W 32 63 17 34 991.1 991.1 25.0
23/02:00am 8.2 2.5 6.5 89 0.8 W 26 37 14 20 992.0 992.0 24.2
23/01:36am 8.6 2.2 6.9 89 0.8 W 30 48 16 26 992.4 992.4 23.8

Other Formats:

Comma delimited format used in spreadsheet applications
http://www.bom.gov.au/fwo/IDV60801/IDV60801.94907.axf

JavaScript Object Notation format (JSON) in row-major order
http://www.bom.gov.au/fwo/IDV60801/IDV60801.94907.json